Koosah.INFO

KSEA Weather Observatons

This table shows observations taken by aircraft in the Seattle, WA, US area since 2019-03-18T08:39:10-0700. By default, it is sorted by time observed in ascending order. Click on a column heading to sort by that column instead. Click again on the same column heading to sort in descending order.

Show observations taken in the last:

Return to main page.

Time Observed Time Received Altitude (ft) Latitude Longitude Temperature (˚C) Wind Direction Wind speed (kn) Frequency (MHz) Source
2019-03-18T10:31:00-0700 2019-03-18T10:33:09-0700 7169 47.6293 -122.4055 5.0 138 28 130.025 .N556AS
2019-03-18T10:31:00-0700 2019-03-18T10:33:09-0700 8078 47.6229 -122.4398 2.0 (missing) (missing) 130.025 .N556AS
2019-03-18T10:31:00-0700 2019-03-18T10:33:09-0700 6307 47.6198 -122.3715 7.0 135 25 130.025 .N556AS
2019-03-18T09:03:00-0700 2019-03-18T09:04:10-0700 6229 47.6157 -122.2536 5.5 140 26 130.025 .N546AS
2019-03-18T09:03:00-0700 2019-03-18T09:05:51-0700 6352 47.6157 -122.2484 5.0 140 25 130.025 .N546AS
2019-03-18T10:07:00-0700 2019-03-18T10:07:27-0700 5897 47.6104 -122.264 8.0 135 24 130.025 .N307AS
2019-03-18T09:03:00-0700 2019-03-18T09:04:10-0700 5316 47.6089 -122.2864 5.5 132 24 130.025 .N546AS
2019-03-18T09:04:00-0700 2019-03-18T09:05:51-0700 7187 47.6083 -122.2158 4.5 122 17 130.025 .N546AS
2019-03-18T10:06:00-0700 2019-03-18T10:07:27-0700 5109 47.6015 -122.2939 7.7 126 25 130.025 .N307AS
2019-03-18T09:04:00-0700 2019-03-18T09:05:51-0700 8077 47.597 -122.1847 3.0 (missing) (missing) 130.025 .N546AS
2019-03-18T09:03:00-0700 2019-03-18T09:04:10-0700 4554 47.5893 -122.3061 7.5 113 26 130.025 .N546AS
2019-03-18T10:06:00-0700 2019-03-18T10:07:27-0700 4385 47.5821 -122.3097 7.2 114 25 130.025 .N307AS
2019-03-18T10:14:00-0700 2019-03-18T10:16:02-0700 21579 47.5811 -121.2375 -27.7 71 33 130.025 .N307AS
2019-03-18T10:15:00-0700 2019-03-18T10:16:02-0700 22215 47.5798 -121.1846 -29.5 72 32 130.025 .N307AS
2019-03-18T10:14:00-0700 2019-03-18T10:15:57-0700 20924 47.5792 -121.2904 -25.0 (missing) (missing) 130.025 .N307AS
2019-03-18T10:14:00-0700 2019-03-18T10:15:57-0700 20270 47.5771 -121.3429 -24.0 66 27 130.025 .N307AS
2019-03-18T10:13:00-0700 2019-03-18T10:15:57-0700 19643 47.575 -121.3949 -22.2 66 26 130.025 .N307AS
2019-03-18T10:15:00-0700 2019-03-18T10:16:02-0700 22819 47.5735 -121.1318 -30.7 69 36 130.025 .N307AS
2019-03-18T10:12:00-0700 2019-03-18T10:14:03-0700 17250 47.5683 -121.5563 -16.0 (missing) (missing) 130.025 .N307AS
2019-03-18T10:12:00-0700 2019-03-18T10:14:03-0700 16342 47.5658 -121.6074 -14.5 79 18 130.025 .N307AS
2019-03-18T09:02:00-0700 2019-03-18T09:04:04-0700 3652 47.5653 -122.3087 9.0 (missing) (missing) 130.025 .N546AS
2019-03-18T10:12:00-0700 2019-03-18T10:14:03-0700 15510 47.5635 -121.6588 -13.5 60 14 130.025 .N307AS
2019-03-18T10:06:00-0700 2019-03-18T10:07:21-0700 3493 47.5594 -122.3097 9.0 (missing) (missing) 130.025 .N307AS
2019-03-18T10:30:00-0700 2019-03-18T10:31:26-0700 3830 47.5592 -122.3116 9.0 (missing) (missing) 130.025 .N556AS
2019-03-18T09:51:00-0700 2019-03-18T09:52:17-0700 3534 47.5589 -122.3099 9.0 (missing) (missing) 130.025 .N528AS
2019-03-18T09:53:00-0700 2019-03-18T09:55:46-0700 10026 47.5558 -122.0908 -1.0 143 14 130.025 .N528AS
2019-03-18T09:02:00-0700 2019-03-18T09:04:04-0700 2826 47.5414 -122.3089 11.7 107 25 130.025 .N546AS
2019-03-18T10:29:00-0700 2019-03-18T10:31:26-0700 2866 47.5376 -122.3087 10.5 105 20 130.025 .N556AS
2019-03-18T10:05:00-0700 2019-03-18T10:07:21-0700 2619 47.5368 -122.3089 11.7 134 20 130.025 .N307AS
2019-03-18T09:50:00-0700 2019-03-18T09:52:17-0700 2658 47.5362 -122.3087 11.0 105 23 130.025 .N528AS
2019-03-18T09:54:00-0700 2019-03-18T09:55:46-0700 10509 47.5356 -122.067 -2.7 149 12 130.025 .N528AS
2019-03-18T10:17:00-0700 2019-03-18T10:19:03-0700 25241 47.5304 -120.8743 -37.0 72 38 130.025 .N307AS
2019-03-18T10:29:00-0700 2019-03-18T10:30:37-0700 2377 47.5258 -122.3082 11.7 113 28 130.025 .N556AS
2019-03-18T10:05:00-0700 2019-03-18T10:06:07-0700 2299 47.5247 -122.3089 12.2 116 20 130.025 .N307AS
2019-03-18T10:17:00-0700 2019-03-18T10:19:03-0700 25716 47.5211 -120.8204 -38.2 73 39 130.025 .N307AS
2019-03-18T10:29:00-0700 2019-03-18T10:30:37-0700 2160 47.5194 -122.308 12.5 111 26 130.025 .N556AS
2019-03-18T09:02:00-0700 2019-03-18T09:04:04-0700 2220 47.5189 -122.3085 12.2 104 26 130.025 .N546AS
2019-03-18T10:05:00-0700 2019-03-18T10:06:07-0700 2196 47.5184 -122.309 12.5 111 22 130.025 .N307AS
2019-03-18T09:06:00-0700 2019-03-18T09:07:40-0700 11192 47.5181 -121.965 -3.7 108 19 130.025 .N546AS
2019-03-18T10:29:00-0700 2019-03-18T10:31:26-0700 2060 47.5162 -122.308 12.5 111 24 130.025 .N556AS
2019-03-18T10:05:00-0700 2019-03-18T10:07:21-0700 2141 47.5155 -122.309 12.5 108 22 130.025 .N307AS
2019-03-18T09:50:00-0700 2019-03-18T09:52:17-0700 2109 47.5148 -122.3078 12.2 95 19 130.025 .N528AS
2019-03-18T10:29:00-0700 2019-03-18T10:30:37-0700 1995 47.5131 -122.3078 12.2 113 24 130.025 .N556AS
2019-03-18T10:05:00-0700 2019-03-18T10:06:07-0700 2074 47.5124 -122.3092 12.7 104 20 130.025 .N307AS
2019-03-18T10:17:00-0700 2019-03-18T10:19:03-0700 26141 47.5119 -120.7661 -39.0 (missing) (missing) 130.025 .N307AS
2019-03-18T09:02:00-0700 2019-03-18T09:02:51-0700 1989 47.5095 -122.3082 13.0 (missing) (missing) 130.025 .N546AS
2019-03-18T09:54:00-0700 2019-03-18T09:55:46-0700 11078 47.5074 -122.0598 -2.0 (missing) (missing) 130.025 .N528AS
2019-03-18T10:29:00-0700 2019-03-18T10:30:19-0700 1925 47.5069 -122.3078 12.0 (missing) (missing) 130.025 .N556AS
2019-03-18T10:05:00-0700 2019-03-18T10:06:01-0700 1945 47.5065 -122.3094 12.0 (missing) (missing) 130.025 .N307AS
2019-03-18T09:02:00-0700 2019-03-18T09:02:51-0700 1851 47.5033 -122.308 13.5 105 23 130.025 .N546AS
2019-03-18T09:07:00-0700 2019-03-18T09:07:40-0700 11885 47.5026 -121.9224 -5.0 105 17 130.025 .N546AS
2019-03-18T10:18:00-0700 2019-03-18T10:19:09-0700 26538 47.5026 -120.7117 -40.5 67 42 130.025 .N307AS
2019-03-18T10:29:00-0700 2019-03-18T10:30:19-0700 1832 47.5011 -122.3078 13.0 109 26 130.025 .N556AS
2019-03-18T10:05:00-0700 2019-03-18T10:06:01-0700 1829 47.5007 -122.3094 13.5 107 25 130.025 .N307AS
2019-03-18T09:01:00-0700 2019-03-18T09:02:51-0700 1700 47.4975 -122.3078 13.5 104 22 130.025 .N546AS
2019-03-18T10:29:00-0700 2019-03-18T10:30:19-0700 1719 47.4954 -122.3078 13.2 105 27 130.025 .N556AS
2019-03-18T10:05:00-0700 2019-03-18T10:06:01-0700 1690 47.4952 -122.3094 13.5 100 20 130.025 .N307AS
2019-03-18T10:18:00-0700 2019-03-18T10:19:09-0700 26960 47.4933 -120.657 -41.5 71 45 130.025 .N307AS
2019-03-18T10:05:00-0700 2019-03-18T10:05:43-0700 1612 47.4925 -122.3094 13.5 98 18 130.025 .N307AS
2019-03-18T10:04:00-0700 2019-03-18T10:05:43-0700 1482 47.4872 -122.3092 14.0 101 19 130.025 .N307AS
2019-03-18T09:07:00-0700 2019-03-18T09:07:40-0700 12665 47.4868 -121.8795 -6.5 94 20 130.025 .N546AS
2019-03-18T10:18:00-0700 2019-03-18T10:19:09-0700 27367 47.4839 -120.602 -42.5 67 44 130.025 .N307AS
2019-03-18T10:04:00-0700 2019-03-18T10:05:43-0700 1385 47.4818 -122.3089 14.5 104 17 130.025 .N307AS
2019-03-18T10:34:00-0700 2019-03-18T10:35:01-0700 11213 47.4676 -122.4141 -3.0 118 21 130.025 .N556AS
2019-03-18T09:06:00-0700 2019-03-18T09:06:18-0700 32700 47.465 -122.305 -55.0 52 66 131.55 .C-FZUL
2019-03-18T10:34:00-0700 2019-03-18T10:35:01-0700 11819 47.4362 -122.3979 -4.2 110 21 130.025 .N556AS
2019-03-18T10:34:00-0700 2019-03-18T10:35:01-0700 12533 47.4039 -122.3818 -6.2 104 22 130.025 .N556AS
2019-03-18T08:54:00-0700 2019-03-18T08:57:47-0700 9200 47.36 -122.114 0.0 98 14 130.025 .N535US
2019-03-18T08:55:00-0700 2019-03-18T09:00:05-0700 9200 47.355 -122.306 0.0 103 17 130.025 .N537US
2019-03-18T08:55:00-0700 2019-03-18T08:57:47-0700 10700 47.349 -122.083 -2.0 107 15 130.025 .N535US
2019-03-18T08:55:00-0700 2019-03-18T08:57:47-0700 12200 47.338 -122.054 -5.0 94 17 130.025 .N535US
2019-03-18T08:56:00-0700 2019-03-18T08:57:47-0700 13700 47.327 -122.022 -9.0 77 19 130.025 .N535US
2019-03-18T08:56:00-0700 2019-03-18T09:00:05-0700 10700 47.318 -122.363 -1.0 106 21 130.025 .N537US
2019-03-18T08:57:00-0700 2019-03-18T08:57:47-0700 15200 47.313 -121.585 -12.0 67 19 130.025 .N535US
2019-03-18T08:57:00-0700 2019-03-18T08:57:47-0700 16700 47.306 -121.542 -15.0 63 24 130.025 .N535US
2019-03-18T08:57:00-0700 2019-03-18T09:00:05-0700 12200 47.291 -122.404 -3.0 101 20 130.025 .N537US
2019-03-18T08:58:00-0700 2019-03-18T09:00:05-0700 13700 47.265 -122.444 -7.0 98 14 130.025 .N537US
2019-03-18T10:36:00-0700 2019-03-18T10:38:07-0700 16672 47.2412 -122.2996 -14.0 69 28 130.025 .N556AS
2019-03-18T08:58:00-0700 2019-03-18T09:00:05-0700 15200 47.235 -122.489 -11.0 83 19 130.025 .N537US
2019-03-18T10:36:00-0700 2019-03-18T10:38:07-0700 17320 47.2055 -122.2814 -15.5 76 29 130.025 .N556AS
2019-03-18T08:59:00-0700 2019-03-18T09:00:05-0700 16700 47.199 -122.544 -14.0 78 26 130.025 .N537US
2019-03-18T10:36:00-0700 2019-03-18T10:38:07-0700 18157 47.1694 -122.263 -18.0 (missing) (missing) 130.025 .N556AS